Latest Weather Observations for Bickley

IDW60901

Issued at 10:11 pm WST Thursday 28 May 2020 (issued every 10 minutes, with the page automatically refreshed every 10 minutes)

About weather observations | Map of Perth area stations | Latest observations for Perth area | Other Formats
Station Details ID: 009240 Name: BICKLEY Lat: -32.01 Lon: 116.14 Height: 384.0 m
Data from the previous 72 hours. | See also: Recent months at Bickley
Date/Time
WST
Temp
°C
App
Temp
°C
Dew
Point
°C
Rel
Hum
%
Delta-T
°C
Wind Press
QNH
hPa
Press
MSL
hPa
Rain since
9am
mm
Dir  Spd
km/h
Gust
km/h
Spd
kts
Gust
kts
28/10:00pm 13.3 10.4 12.8 97 0.3 NNW 20 28 11 15 - - 16.4
28/09:30pm 13.3 10.8 12.4 94 0.5 NNW 17 24 9 13 - - 16.4
28/09:00pm 13.5 11.0 12.2 92 0.7 NNW 17 28 9 15 - - 16.4
28/08:30pm 13.5 11.1 12.7 95 0.4 NNW 17 26 9 14 - - 16.4
28/08:00pm 13.8 11.8 12.7 93 0.6 NNW 15 24 8 13 - - 16.2
28/07:30pm 13.8 11.7 12.5 92 0.7 NNW 15 22 8 12 - - 16.2
28/07:00pm 13.9 11.4 12.3 90 0.9 NW 17 28 9 15 - - 16.2
28/06:30pm 14.2 11.3 12.2 88 1.1 NW 19 30 10 16 - - 16.2
28/06:00pm 14.6 11.6 12.5 87 1.2 NW 20 35 11 19 - - 16.2
28/05:30pm 14.9 11.3 12.0 83 1.6 NW 22 35 12 19 - - 16.2
28/05:00pm 15.3 11.0 11.9 80 1.9 NW 26 43 14 23 - - 16.2
28/04:30pm 15.4 10.7 12.0 80 1.9 NW 28 46 15 25 - - 16.2
28/04:07pm 15.2 10.4 11.6 79 2.0 NW 28 50 15 27 - - 16.2
28/04:00pm 15.6 11.7 12.2 80 1.9 NW 24 41 13 22 - - 16.2
28/03:30pm 14.9 11.5 12.4 85 1.4 NW 22 39 12 21 - - 16.2
28/03:00pm 15.2 11.0 12.5 84 1.5 NW 26 44 14 24 - - 16.2
28/02:30pm 14.8 11.8 14.8 100 0.0 NW 24 35 13 19 - - 16.2
28/02:00pm 15.2 13.7 15.2 100 0.0 NW 17 30 9 16 - - 16.0
28/01:30pm 14.2 11.9 14.2 100 0.0 NW 19 35 10 19 - - 15.0
28/01:00pm 13.7 11.6 13.7 100 0.0 NW 17 28 9 15 - - 13.2
28/12:30pm 13.3 11.1 13.3 100 0.0 NW 17 30 9 16 - - 10.6
28/12:00pm 13.0 10.3 13.0 100 0.0 NNW 19 32 10 17 - - 6.8
28/11:30am 12.7 10.7 12.7 100 0.0 NNW 15 28 8 15 - - 4.8
28/11:00am 12.8 9.9 12.8 100 0.0 NW 20 33 11 18 - - 1.8
28/10:30am 13.0 10.7 13.0 100 0.0 NNW 17 32 9 17 - - 1.2
28/10:00am 12.9 10.6 12.9 100 0.0 NW 17 28 9 15 - - 0.6
28/09:30am 12.9 11.7 12.9 100 0.0 NW 11 28 6 15 - - 0.2
28/09:00am 12.6 10.9 12.6 100 0.0 NNW 13 30 7 16 - - 6.0
28/08:30am 12.6 9.8 12.6 100 0.0 NNW 19 30 10 16 - - 4.4
28/08:00am 12.4 10.3 12.4 100 0.0 NNW 15 26 8 14 - - 4.0
28/07:30am 12.4 9.5 12.4 100 0.0 NNW 19 30 10 16 - - 3.8
28/07:00am 12.3 9.8 12.3 100 0.0 NNW 17 26 9 14 - - 3.8
28/06:30am 12.3 9.8 12.3 100 0.0 NNW 17 32 9 17 - - 3.6
28/06:00am 12.4 11.1 12.4 100 0.0 NW 11 26 6 14 - - 3.2
28/05:30am 12.4 9.5 12.2 99 0.1 NNW 19 33 10 18 - - 3.2
28/05:00am 12.3 9.7 12.1 99 0.1 NW 17 32 9 17 - - 3.0
28/04:30am 12.1 9.5 11.9 99 0.1 NW 17 28 9 15 - - 2.6
28/04:00am 12.0 9.3 11.8 99 0.1 NNW 17 28 9 15 - - 2.6
28/03:30am 12.1 9.5 11.9 99 0.1 NNW 17 26 9 14 - - 2.6
28/03:00am 11.9 9.6 11.7 99 0.1 NW 15 26 8 14 - - 2.6
28/02:30am 11.5 9.4 11.3 99 0.1 NW 13 24 7 13 - - 2.2
28/02:00am 11.1 9.7 10.9 99 0.1 NW 9 13 5 7 - - 2.2
28/01:30am 11.3 9.2 11.1 99 0.1 NNW 13 20 7 11 - - 2.2
28/01:00am 11.6 10.7 11.4 99 0.1 WNW 7 11 4 6 - - 2.2
28/12:30am 11.2 9.1 11.0 99 0.1 NW 13 20 7 11 - - 2.0
28/12:00am 11.2 8.7 11.0 99 0.1 WNW 15 24 8 13 - - 2.0
 
Date/Time
WST
Temp
°C
App
Temp
°C
Dew
Point
°C
Rel
Hum
%
Delta-T
°C
Wind Press
QNH
hPa
Press
MSL
hPa
Rain since
9am
mm
Dir  Spd
km/h
Gust
km/h
Spd
kts
Gust
kts
27/11:30pm 11.4 8.6 11.2 99 0.1 WNW 17 26 9 14 - - 2.0
27/11:00pm 11.6 8.8 11.3 98 0.2 WNW 17 24 9 13 - - 2.0
27/10:30pm 11.6 9.1 11.0 96 0.3 WNW 15 20 8 11 - - 2.0
27/10:00pm 11.9 9.8 11.3 96 0.3 NW 13 20 7 11 - - 2.0
27/09:30pm 12.0 9.9 11.1 94 0.5 NW 13 20 7 11 - - 2.0
27/09:00pm 12.2 10.5 11.1 93 0.6 NW 11 17 6 9 - - 2.0
27/08:30pm 12.0 10.2 10.9 93 0.6 NNW 11 20 6 11 - - 2.0
27/08:00pm 11.8 10.1 11.3 97 0.3 NNW 11 20 6 11 - - 2.0
27/07:30pm 11.7 9.6 11.2 97 0.3 NW 13 17 7 9 - - 2.0
27/07:00pm 11.9 10.3 11.4 97 0.3 NW 11 15 6 8 - - 2.0
27/06:30pm 12.3 10.8 11.8 97 0.3 NW 11 20 6 11 - - 1.8
27/06:00pm 12.5 11.4 11.9 96 0.3 WNW 9 15 5 8 - - 1.8
27/05:30pm 12.9 11.1 12.0 94 0.5 WNW 13 22 7 12 - - 1.8
27/05:00pm 13.5 11.5 11.6 88 1.0 WNW 13 24 7 13 - - 1.6
27/04:30pm 14.7 12.0 10.5 76 2.2 WNW 15 26 8 14 - - 1.0
27/04:00pm 14.9 11.3 9.7 71 2.7 WNW 19 32 10 17 - - 1.0
27/03:30pm 15.1 11.1 9.0 67 3.2 W 20 35 11 19 - - 1.0
27/03:00pm 13.9 11.2 11.8 87 1.1 W 17 28 9 15 - - 0.8
27/02:30pm 13.7 8.8 11.2 85 1.3 W 28 54 15 29 - - 0.8
27/02:29pm 13.6 8.6 11.0 84 1.4 W 28 54 15 29 - - 0.8
27/02:00pm 15.2 10.4 8.9 66 3.3 WNW 24 43 13 23 - - 0.8
27/01:30pm 14.9 11.3 10.5 75 2.4 WNW 20 41 11 22 - - 0.8
27/01:00pm 15.2 11.9 11.6 79 2.0 NW 20 32 11 17 - - 0.8
27/12:30pm 15.3 12.2 12.1 81 1.8 NW 20 30 11 16 - - 0.8
27/12:00pm 14.5 10.9 11.8 84 1.5 NW 22 33 12 18 - - 0.8
27/11:30am 13.5 11.2 11.9 90 0.9 NW 15 24 8 13 - - 0.8
27/11:00am 13.9 11.7 13.4 97 0.3 NNW 17 26 9 14 - - 0.8
27/10:30am 11.9 9.2 11.7 99 0.1 NNW 17 26 9 14 - - 0.8
27/10:00am 11.6 10.0 11.4 99 0.1 N 11 28 6 15 - - 0.8
27/09:30am 10.8 8.2 10.6 99 0.1 NW 15 22 8 12 - - 0.4
27/09:00am 10.9 9.1 10.7 99 0.1 NW 11 22 6 12 - - 1.6
27/08:30am 10.8 7.7 10.2 96 0.3 NW 17 30 9 16 - - 1.6
27/08:00am 10.8 8.4 10.0 95 0.4 NNW 13 24 7 13 - - 0.2
27/07:30am 10.0 7.1 9.5 97 0.3 NNW 15 22 8 12 - - 0.2
27/07:00am 9.9 6.6 9.4 97 0.3 NNW 17 28 9 15 - - 0.2
27/06:30am 10.1 7.2 9.5 96 0.3 NNW 15 26 8 14 - - 0.2
27/06:00am 10.2 6.5 9.6 96 0.3 NNW 19 30 10 16 - - 0.2
27/05:30am 9.9 6.9 9.1 95 0.4 NNW 15 22 8 12 - - 0.2
27/05:00am 10.1 7.2 9.5 96 0.3 NNW 15 22 8 12 - - 0.0
27/04:30am 10.6 7.8 10.1 97 0.3 NNW 15 24 8 13 - - 0.0
27/04:00am 10.6 7.3 9.7 94 0.5 NW 17 24 9 13 - - 0.0
27/03:30am 10.7 8.1 9.5 92 0.6 NNW 13 20 7 11 - - 0.0
27/03:00am 11.0 8.0 9.4 90 0.8 NNW 15 26 8 14 - - 0.0
27/02:30am 11.2 8.6 9.5 89 0.9 NNW 13 22 7 12 - - 0.0
27/02:00am 10.8 8.2 9.4 91 0.7 N 13 20 7 11 - - 0.0
27/01:30am 11.0 8.9 9.8 92 0.6 N 11 17 6 9 - - 0.0
27/01:00am 11.1 9.3 9.5 90 0.8 N 9 13 5 7 - - 0.0
27/12:30am 11.1 9.4 9.7 91 0.7 NNW 9 13 5 7 - - 0.0
27/12:00am 10.9 9.6 10.1 95 0.4 NNW 7 11 4 6 - - 0.0
 
Date/Time
WST
Temp
°C
App
Temp
°C
Dew
Point
°C
Rel
Hum
%
Delta-T
°C
Wind Press
QNH
hPa
Press
MSL
hPa
Rain since
9am
mm
Dir  Spd
km/h
Gust
km/h
Spd
kts
Gust
kts
26/11:30pm 10.3 8.6 9.8 97 0.3 NNW 9 11 5 6 - - 0.0
26/11:00pm 10.7 9.1 10.2 97 0.3 NW 9 11 5 6 - - 0.0
26/10:30pm 10.8 8.8 10.3 97 0.3 NW 11 13 6 7 - - 0.0
26/10:00pm 10.9 8.9 10.3 96 0.3 NNW 11 15 6 8 - - 0.0
26/09:30pm 11.0 9.4 10.2 95 0.4 NW 9 11 5 6 - - 0.0
26/09:00pm 11.2 9.9 10.1 93 0.6 NW 7 9 4 5 - - 0.0
26/08:30pm 11.1 9.8 10.0 93 0.6 NNW 7 9 4 5 - - 0.0
26/08:00pm 11.3 10.2 9.9 91 0.7 NNW 6 9 3 5 - - 0.0
26/07:30pm 11.4 10.1 10.0 91 0.7 NW 7 9 4 5 - - 0.0
26/07:00pm 11.5 10.4 10.1 91 0.7 NW 6 9 3 5 - - 0.0
26/06:30pm 11.5 10.2 9.9 90 0.8 NW 7 9 4 5 - - 0.0
26/06:00pm 11.7 10.4 9.9 89 0.9 NW 7 9 4 5 - - 0.0
26/05:30pm 11.7 10.4 9.8 88 1.0 NW 7 11 4 6 - - 0.0
26/05:00pm 11.6 10.1 9.2 85 1.2 WNW 7 9 4 5 - - 0.0
26/04:30pm 12.5 11.2 9.1 80 1.7 WNW 6 9 3 5 - - 0.0
26/04:00pm 13.0 12.4 8.9 76 2.1 NNW 2 6 1 3 - - 0.0
26/03:30pm 12.5 11.1 9.5 82 1.6 W 7 9 4 5 - - 0.0
26/03:00pm 12.7 10.8 9.2 79 1.8 WSW 9 15 5 8 - - 0.0
26/02:30pm 13.1 11.2 9.2 77 2.0 W 9 15 5 8 - - 0.0
26/02:00pm 13.2 11.7 9.1 76 2.1 SW 7 13 4 7 - - 0.0
26/01:30pm 13.3 11.8 9.0 75 2.2 SSW 7 13 4 7 - - 0.0
26/01:00pm 13.4 11.7 9.8 79 1.9 SSW 9 13 5 7 - - 0.0
26/12:30pm 12.9 11.3 8.8 76 2.1 WSW 7 13 4 7 - - 0.0
26/12:00pm 12.9 11.5 8.8 76 2.1 S 6 9 3 5 - - 0.0
26/11:30am 12.3 10.7 7.8 74 2.2 SW 6 11 3 6 - - 0.0
26/11:00am 12.4 10.8 8.1 75 2.2 WSW 6 11 3 6 - - 0.0
26/10:30am 11.7 10.1 8.0 78 1.8 SSW 6 9 3 5 - - 0.0
26/10:00am 11.4 10.0 8.8 84 1.3 E 6 9 3 5 - - 0.0
26/09:30am 10.7 9.3 8.8 88 1.0 E 6 9 3 5 - - 0.0
26/09:00am 10.0 9.1 9.4 96 0.3 S 4 11 2 6 - - 14.2
26/08:30am 9.5 8.6 9.4 99 0.1 SSE 4 9 2 5 - - 14.2
26/08:00am 8.6 7.1 8.5 99 0.0 S 6 7 3 4 - - 14.2
26/07:30am 8.4 6.7 8.3 99 0.0 S 7 11 4 6 - - 14.2
26/07:00am 8.2 6.1 8.1 99 0.0 S 9 13 5 7 - - 14.2
26/06:30am 8.1 5.9 8.0 99 0.0 S 9 13 5 7 - - 14.2
26/06:00am 8.1 6.3 8.0 99 0.0 S 7 11 4 6 - - 14.2
26/05:30am 7.6 5.9 7.5 99 0.0 SSW 6 7 3 4 - - 14.2
26/05:00am 8.2 6.4 8.1 99 0.0 WSW 7 9 4 5 - - 14.2
26/04:30am 8.1 6.3 8.0 99 0.0 WSW 7 11 4 6 - - 14.0
26/04:00am 7.9 6.2 7.6 98 0.1 WSW 6 9 3 5 - - 14.0
26/03:30am 7.9 5.6 7.6 98 0.1 WSW 9 13 5 7 - - 13.8
26/03:00am 7.8 5.5 7.5 98 0.1 SW 9 13 5 7 - - 13.8
26/02:30am 8.4 5.9 8.1 98 0.1 W 11 13 6 7 - - 13.8
26/02:00am 8.3 5.2 7.4 94 0.4 W 13 17 7 9 - - 13.8
26/01:30am 8.8 5.7 7.1 89 0.8 SW 13 22 7 12 - - 13.6
26/01:00am 8.6 5.3 6.6 87 0.9 SW 13 20 7 11 - - 13.6
26/12:30am 8.3 5.4 6.3 87 0.9 SSW 11 17 6 9 - - 13.6
26/12:00am 8.1 5.1 6.2 88 0.9 SW 11 15 6 8 - - 13.4
 
Date/Time
WST
Temp
°C
App
Temp
°C
Dew
Point
°C
Rel
Hum
%
Delta-T
°C
Wind Press
QNH
hPa
Press
MSL
hPa
Rain since
9am
mm
Dir  Spd
km/h
Gust
km/h
Spd
kts
Gust
kts
25/11:30pm 8.1 4.3 5.9 86 1.0 SW 15 26 8 14 - - 13.4
25/11:00pm 7.7 4.4 6.2 90 0.7 SW 13 22 7 12 - - 13.4
25/10:30pm 7.7 4.8 6.5 92 0.6 SW 11 20 6 11 - - 13.4

Latest Capital City Observations: Canberra | Sydney | Melbourne | Brisbane | Adelaide | Perth | Hobart | Darwin

Other formats

Comma delimited format used in spreadsheet applications
http://www.bom.gov.au/fwo/IDW60901/IDW60901.95610.axf

JavaScript Object Notation format (JSON) in row-major order
http://www.bom.gov.au/fwo/IDW60901/IDW60901.95610.json

Data quality

Most of these data are generated automatically and are frequently updated. Quality checks on data are not normally performed. It is possible for incorrect values to appear. Refer to information at About Latest Weather Observations and please check the disclaimer before using these data.